Time;durP1;ratioP1;P1;durP2;ratioP2;P2;SDS_P1;SDS_P2;PMS_P1;PMS_P2;Temp;Humidity;BMP_temperature;BMP_pressure;BME280_temperature;BME280_humidity;BME280_pressure;Samples;Min_cycle;Max_cycle;Signal;HPM_P1;HPM_P2
2023/11/23 00:02:15;;;;;;;10.98;8.30;;;12.60;70.80;14.30;102186.00;;;;5046317;28;20199;-75
2023/11/23 00:04:42;;;;;;;11.48;9.13;;;12.60;70.80;14.30;102173.00;;;;5056504;28;20575;-75
2023/11/23 00:07:10;;;;;;;11.80;8.55;;;12.60;70.90;14.30;102175.00;;;;5065714;28;20211;-75
2023/11/23 00:09:37;;;;;;;13.50;9.18;;;12.70;70.90;14.40;102173.00;;;;5065018;28;20191;-75
2023/11/23 00:12:05;;;;;;;11.40;8.65;;;12.70;71.00;14.40;102163.00;;;;5052932;28;20206;-75
2023/11/23 00:14:34;;;;;;;10.60;8.75;;;12.70;71.00;14.40;102162.00;;;;5058000;28;20315;-75
2023/11/23 00:17:01;;;;;;;10.57;7.82;;;12.70;71.00;14.40;102163.00;;;;5050049;28;20222;-75
2023/11/23 00:19:27;;;;;;;10.40;7.93;;;12.80;71.00;14.50;102156.00;;;;5051375;28;20199;-75
2023/11/23 00:21:55;;;;;;;9.80;7.80;;;12.80;70.90;14.50;102154.00;;;;5043999;28;20657;-75
2023/11/23 00:24:22;;;;;;;9.88;7.47;;;12.80;71.00;14.50;102155.00;;;;5052051;28;20199;-75
2023/11/23 00:26:51;;;;;;;9.02;6.95;;;12.80;71.00;14.50;102153.00;;;;5044698;28;20215;-75
2023/11/23 00:29:18;;;;;;;12.43;7.90;;;12.90;71.00;14.60;102151.00;;;;5054274;28;20207;-75
2023/11/23 00:31:46;;;;;;;11.95;9.25;;;12.90;70.90;14.60;102150.00;;;;5062689;28;20684;-75
2023/11/23 00:34:13;;;;;;;10.73;8.40;;;12.90;71.60;14.60;102148.00;;;;5054677;28;20199;-75
2023/11/23 00:36:40;;;;;;;10.27;7.43;;;12.90;70.90;14.60;102133.00;;;;5057215;28;20246;-75
2023/11/23 00:39:09;;;;;;;9.60;7.32;;;12.90;70.90;14.60;102133.00;;;;5043242;28;20192;-75
2023/11/23 00:41:36;;;;;;;11.05;7.63;;;13.00;70.90;14.60;102131.00;;;;5043983;28;20538;-75
2023/11/23 00:44:04;;;;;;;9.50;7.20;;;13.00;71.00;14.70;102131.00;;;;5044889;28;20199;-75
2023/11/23 00:46:31;;;;;;;11.63;7.60;;;13.00;71.00;14.70;102131.00;;;;5043292;28;20202;-75
2023/11/23 00:49:00;;;;;;;11.43;8.07;;;13.00;71.00;14.70;102125.00;;;;5043335;28;20196;-75
2023/11/23 00:51:27;;;;;;;9.25;7.28;;;13.00;71.00;14.70;102127.00;;;;5044704;28;20207;-75
2023/11/23 00:53:55;;;;;;;16.17;7.63;;;13.00;71.00;14.70;102129.00;;;;5052264;28;20195;-75
2023/11/23 00:56:23;;;;;;;10.27;6.93;;;13.10;71.00;14.80;102122.00;;;;5043213;28;20693;-75
2023/11/23 00:58:51;;;;;;;10.57;7.43;;;13.10;71.00;14.80;102115.00;;;;5044198;28;20227;-75
2023/11/23 01:01:19;;;;;;;12.23;7.63;;;13.10;71.00;14.80;102118.00;;;;5047504;28;20207;-75
2023/11/23 01:03:46;;;;;;;8.35;6.32;;;13.20;71.10;14.80;102112.00;;;;5044138;28;20198;-75
2023/11/23 01:06:14;;;;;;;12.25;7.07;;;13.20;71.20;14.80;102116.00;;;;5046065;28;20199;-75
2023/11/23 01:08:42;;;;;;;8.60;6.03;;;13.20;71.10;14.80;102120.00;;;;5031823;28;20576;-75
2023/11/23 01:11:09;;;;;;;10.10;6.85;;;13.20;71.10;14.90;102119.00;;;;5029990;28;20686;-75
2023/11/23 01:13:36;;;;;;;8.52;6.82;;;13.20;71.10;14.90;102117.00;;;;5032154;28;20200;-75
2023/11/23 01:16:04;;;;;;;9.07;6.72;;;13.20;71.10;14.90;102114.00;;;;5037273;28;20216;-75
2023/11/23 01:18:31;;;;;;;10.82;7.40;;;13.30;71.20;14.90;102113.00;;;;5030984;28;20204;-75
2023/11/23 01:20:58;;;;;;;9.77;6.68;;;13.30;71.20;14.90;102108.00;;;;5030423;28;20651;-75
2023/11/23 01:23:27;;;;;;;8.30;6.00;;;13.30;71.10;15.00;102110.00;;;;5033040;28;20682;-75
2023/11/23 01:25:54;;;;;;;8.85;6.38;;;13.40;71.20;15.00;102115.00;;;;5027534;28;20203;-75
2023/11/23 01:28:21;;;;;;;9.35;6.95;;;13.30;71.80;15.00;102112.00;;;;5027870;28;20192;-75
2023/11/23 01:30:48;;;;;;;9.65;6.35;;;13.40;71.20;15.10;102110.00;;;;5034502;28;20267;-75
2023/11/23 01:33:15;;;;;;;8.40;6.68;;;13.40;71.20;15.10;102109.00;;;;5038341;28;20292;-75
2023/11/23 01:35:42;;;;;;;11.30;6.68;;;13.40;71.20;15.10;102112.00;;;;5034067;28;20287;-75
2023/11/23 01:38:09;;;;;;;10.18;6.28;;;13.40;71.20;15.10;102108.00;;;;5030427;28;20645;-75
2023/11/23 01:40:38;;;;;;;8.98;6.38;;;13.50;71.20;15.10;102103.00;;;;5029165;28;20604;-75
2023/11/23 01:43:08;;;;;;;6.72;5.15;;;13.50;71.30;15.10;102106.00;;;;5030747;28;20188;-75
2023/11/23 01:45:35;;;;;;;8.40;5.40;;;13.50;71.20;15.20;102096.00;;;;5028911;28;20193;-75
2023/11/23 01:48:03;;;;;;;8.02;6.03;;;13.50;71.20;15.20;102094.00;;;;5030318;28;20204;-75
2023/11/23 01:50:33;;;;;;;8.48;5.53;;;13.60;71.30;15.20;102090.00;;;;5044646;28;20723;-75
2023/11/23 01:53:01;;;;;;;13.10;6.43;;;13.60;71.30;15.20;102088.00;;;;5034737;28;20196;-75
2023/11/23 01:55:29;;;;;;;7.63;6.05;;;13.60;71.20;15.20;102088.00;;;;5028436;28;20249;-75
2023/11/23 01:58:02;;;;;;;9.65;6.40;;;13.60;71.20;15.20;102093.00;;;;5029359;28;20680;-76
2023/11/23 02:00:30;;;;;;;10.95;7.32;;;13.60;71.20;15.30;102086.00;;;;5030227;28;20228;-75
2023/11/23 02:02:59;;;;;;;9.77;6.00;;;13.60;71.20;15.30;102100.00;;;;5026796;28;20211;-75
2023/11/23 02:05:27;;;;;;;11.07;6.45;;;13.70;71.30;15.30;102093.00;;;;5029526;28;20200;-75
2023/11/23 02:07:54;;;;;;;15.02;6.43;;;13.70;71.30;15.30;102091.00;;;;5029200;28;20196;-75
2023/11/23 02:10:21;;;;;;;8.80;6.15;;;13.70;71.30;15.30;102090.00;;;;5031046;28;20680;-75
2023/11/23 02:12:50;;;;;;;7.68;5.78;;;13.70;71.30;15.30;102089.00;;;;5029101;28;20200;-75
2023/11/23 02:15:18;;;;;;;7.63;5.78;;;13.70;71.30;15.40;102092.00;;;;5029574;28;20216;-75
2023/11/23 02:17:45;;;;;;;8.88;5.55;;;13.70;71.30;15.40;102099.00;;;;5029751;28;20220;-75
2023/11/23 02:20:13;;;;;;;10.57;6.10;;;13.80;71.30;15.40;102097.00;;;;5030228;28;20630;-75
2023/11/23 02:22:41;;;;;;;9.65;6.30;;;13.70;71.30;15.40;102099.00;;;;5029198;28;20200;-75
2023/11/23 02:25:09;;;;;;;8.70;5.53;;;13.80;71.30;15.40;102090.00;;;;5041351;28;20200;-75
2023/11/23 02:27:36;;;;;;;10.43;5.63;;;13.80;71.30;15.50;102103.00;;;;5030393;28;20208;-75
2023/11/23 02:30:06;;;;;;;8.32;6.45;;;13.80;71.30;15.40;102097.00;;;;5029875;28;20203;-75
2023/11/23 02:32:33;;;;;;;8.13;6.43;;;13.80;71.30;15.50;102101.00;;;;5027328;28;20607;-75
2023/11/23 02:35:00;;;;;;;8.23;5.82;;;13.90;71.30;15.50;102088.00;;;;5029057;28;20200;-75
2023/11/23 02:37:27;;;;;;;8.18;5.82;;;13.90;71.30;15.50;102089.00;;;;5027502;28;20718;-75
2023/11/23 02:39:54;;;;;;;7.25;6.03;;;13.90;71.30;15.50;102088.00;;;;5029452;28;20678;-75
2023/11/23 02:42:22;;;;;;;7.63;5.75;;;13.90;71.30;15.50;102087.00;;;;5029947;28;20600;-75
2023/11/23 02:44:49;;;;;;;9.23;6.00;;;13.90;71.30;15.60;102082.00;;;;5029115;28;20200;-75
2023/11/23 02:47:16;;;;;;;9.68;6.05;;;13.90;71.20;15.60;102083.00;;;;5033601;28;20199;-75
2023/11/23 02:49:43;;;;;;;13.23;6.53;;;13.90;71.20;15.60;102083.00;;;;5028077;28;20205;-75
2023/11/23 02:52:10;;;;;;;12.43;6.63;;;14.00;71.20;15.60;102082.00;;;;5028958;28;20209;-75
2023/11/23 02:54:37;;;;;;;8.23;5.55;;;14.00;71.10;15.60;102082.00;;;;5026339;28;20223;-75
2023/11/23 02:57:04;;;;;;;11.40;5.57;;;14.00;71.10;15.60;102080.00;;;;5028611;28;20232;-75
2023/11/23 02:59:33;;;;;;;7.07;5.57;;;14.00;71.10;15.60;102080.00;;;;5028475;28;20677;-75
2023/11/23 03:02:00;;;;;;;9.57;5.60;;;14.00;71.00;15.60;102075.00;;;;5030292;28;20190;-75
2023/11/23 03:04:27;;;;;;;10.43;5.10;;;14.00;71.00;15.60;102077.00;;;;5027686;28;20578;-75
2023/11/23 03:06:54;;;;;;;11.73;5.78;;;14.00;70.90;15.60;102080.00;;;;5028012;28;20204;-75
2023/11/23 03:09:23;;;;;;;7.82;5.57;;;14.00;70.90;15.60;102076.00;;;;5041623;28;20287;-75
2023/11/23 03:11:50;;;;;;;9.07;5.70;;;14.00;70.90;15.60;102073.00;;;;5031350;28;20203;-75
2023/11/23 03:14:17;;;;;;;9.10;5.35;;;14.00;70.90;15.60;102076.00;;;;5027709;28;20574;-75
2023/11/23 03:16:45;;;;;;;10.30;4.43;;;14.00;70.90;15.60;102077.00;;;;5028750;28;20220;-75
2023/11/23 03:19:13;;;;;;;8.70;5.53;;;14.00;70.90;15.60;102081.00;;;;5028904;28;20212;-75
2023/11/23 03:21:40;;;;;;;10.40;5.70;;;14.00;70.90;15.60;102080.00;;;;5028628;28;20565;-75
2023/11/23 03:24:08;;;;;;;7.28;5.47;;;14.00;70.90;15.60;102077.00;;;;5026670;28;21093;-75
2023/11/23 03:26:35;;;;;;;6.05;4.28;;;14.00;70.90;15.50;102072.00;;;;5027988;28;20204;-75
2023/11/23 03:29:03;;;;;;;6.20;4.72;;;14.00;70.90;15.60;102072.00;;;;5028059;28;20197;-75
2023/11/23 03:31:30;;;;;;;10.48;5.53;;;14.00;70.90;15.60;102068.00;;;;5038119;28;20196;-75
2023/11/23 03:33:58;;;;;;;7.28;5.00;;;13.90;70.90;15.50;102070.00;;;;5031353;28;20669;-75
2023/11/23 03:36:25;;;;;;;9.38;4.53;;;13.90;70.90;15.50;102068.00;;;;5027572;28;20647;-75
2023/11/23 03:38:52;;;;;;;9.43;5.57;;;13.90;70.90;15.50;102070.00;;;;5028311;28;20216;-75
2023/11/23 03:41:19;;;;;;;6.97;5.05;;;13.90;70.90;15.50;102064.00;;;;5029210;28;20200;-75
2023/11/23 03:43:46;;;;;;;8.73;4.88;;;13.90;70.90;15.50;102065.00;;;;5015497;28;20681;-75
2023/11/23 03:46:13;;;;;;;7.47;4.50;;;13.90;70.90;15.60;102058.00;;;;5030906;28;20210;-75
2023/11/23 03:48:40;;;;;;;6.85;4.65;;;13.90;71.00;15.60;102060.00;;;;5036360;28;20544;-75
2023/11/23 03:51:12;;;;;;;8.27;4.75;;;14.00;71.00;15.50;102050.00;;;;5028681;28;20196;-75
2023/11/23 03:53:39;;;;;;;5.28;4.13;;;13.90;71.00;15.50;102056.00;;;;5025547;28;20212;-75
2023/11/23 03:56:08;;;;;;;6.45;3.50;;;13.90;70.80;15.50;102057.00;;;;5028342;28;20235;-75
2023/11/23 03:58:35;;;;;;;8.30;4.50;;;13.90;70.80;15.50;102053.00;;;;5043273;28;20206;-76
2023/11/23 04:01:05;;;;;;;8.75;4.10;;;13.90;70.60;15.40;102058.00;;;;5026995;28;20201;-75
2023/11/23 04:03:31;;;;;;;7.88;4.22;;;13.90;70.50;15.40;102062.00;;;;5010582;28;20200;-75
2023/11/23 04:05:59;;;;;;;6.68;3.67;;;13.80;70.40;15.40;102062.00;;;;5040904;28;20665;-75
2023/11/23 04:08:27;;;;;;;4.18;3.30;;;13.80;70.40;15.30;102060.00;;;;5048543;28;20199;-75
2023/11/23 04:10:54;;;;;;;4.65;3.85;;;13.80;70.50;15.30;102061.00;;;;5030060;28;20207;-75
2023/11/23 04:13:21;;;;;;;5.80;3.67;;;13.80;70.40;15.30;102062.00;;;;5026718;28;20195;-75
2023/11/23 04:15:48;;;;;;;6.03;3.90;;;13.70;70.40;15.30;102060.00;;;;5026350;28;20200;-75
2023/11/23 04:18:15;;;;;;;6.35;3.67;;;13.70;70.50;15.20;102052.00;;;;5026665;28;20223;-75
2023/11/23 04:20:42;;;;;;;6.28;3.53;;;13.70;70.40;15.20;102045.00;;;;5022790;28;20229;-75
2023/11/23 04:23:10;;;;;;;4.72;3.60;;;13.60;70.40;15.20;102050.00;;;;5032509;28;20212;-75
2023/11/23 04:25:37;;;;;;;5.43;3.70;;;13.60;70.40;15.10;102050.00;;;;5018582;28;20271;-75
2023/11/23 04:28:05;;;;;;;5.22;2.92;;;13.60;70.50;15.10;102044.00;;;;5035437;28;20753;-75
2023/11/23 04:30:32;;;;;;;6.28;3.17;;;13.50;70.50;15.10;102050.00;;;;5027053;28;20565;-75
2023/11/23 04:33:00;;;;;;;6.07;3.38;;;13.50;70.50;15.00;102043.00;;;;5028215;28;20199;-75
2023/11/23 04:35:28;;;;;;;5.30;3.05;;;13.50;70.60;15.00;102037.00;;;;5024911;28;20207;-75
2023/11/23 04:37:55;;;;;;;4.38;3.53;;;13.50;70.70;15.00;102042.00;;;;5038166;28;20278;-75
2023/11/23 04:40:23;;;;;;;4.53;3.20;;;13.40;70.60;14.90;102044.00;;;;5038635;28;20550;-75
2023/11/23 04:42:52;;;;;;;6.90;3.08;;;13.40;70.70;14.90;102046.00;;;;5017852;28;20197;-75
2023/11/23 04:45:19;;;;;;;7.05;2.90;;;13.40;70.80;14.90;102042.00;;;;5030823;28;20192;-75
2023/11/23 04:47:46;;;;;;;4.82;2.88;;;13.40;70.80;14.90;102043.00;;;;5031161;28;20283;-75
2023/11/23 04:50:13;;;;;;;8.50;2.38;;;13.40;70.80;14.90;102046.00;;;;5025420;28;20226;-75
2023/11/23 04:52:40;;;;;;;4.05;2.25;;;13.30;70.80;14.90;102049.00;;;;5024465;28;20197;-75
2023/11/23 04:55:08;;;;;;;5.72;2.47;;;13.30;70.80;14.80;102049.00;;;;5025713;28;20287;-75
2023/11/23 04:57:35;;;;;;;4.93;2.47;;;13.30;70.80;14.80;102049.00;;;;5038799;28;20224;-75
2023/11/23 05:00:05;;;;;;;5.65;2.25;;;13.30;70.90;14.80;102050.00;;;;5041121;28;21086;-75
2023/11/23 05:02:32;;;;;;;5.25;2.47;;;13.30;70.90;14.80;102052.00;;;;5031333;28;20184;-75
2023/11/23 05:04:59;;;;;;;5.90;2.22;;;13.30;71.00;14.90;102053.00;;;;5030124;28;20199;-75
2023/11/23 05:07:27;;;;;;;4.82;2.53;;;13.30;71.00;14.80;102054.00;;;;5031862;28;20202;-75
2023/11/23 05:09:54;;;;;;;3.75;2.30;;;13.30;71.10;14.90;102047.00;;;;5023869;28;20224;-75
2023/11/23 05:12:21;;;;;;;8.75;2.17;;;13.30;71.10;14.80;102048.00;;;;5028439;28;20594;-75
2023/11/23 05:14:48;;;;;;;7.30;2.30;;;13.30;71.20;14.80;102051.00;;;;5029064;28;20201;-75
2023/11/23 05:17:17;;;;;;;4.40;1.92;;;13.30;71.30;14.80;102044.00;;;;5038138;28;20231;-75
2023/11/23 05:19:44;;;;;;;2.72;2.10;;;13.30;71.30;14.90;102049.00;;;;5034116;28;20192;-75
2023/11/23 05:22:11;;;;;;;4.80;2.22;;;13.30;71.30;14.90;102037.00;;;;5030602;28;20201;-75
2023/11/23 05:24:38;;;;;;;4.47;1.45;;;13.30;71.30;14.90;102040.00;;;;5030076;28;20203;-75
2023/11/23 05:27:06;;;;;;;5.80;1.92;;;13.30;71.30;14.90;102043.00;;;;5030627;28;20608;-75
2023/11/23 05:29:33;;;;;;;4.43;1.77;;;13.30;71.30;14.90;102025.00;;;;5029763;28;20262;-75
2023/11/23 05:32:00;;;;;;;3.85;1.75;;;13.30;71.30;14.90;102021.00;;;;5032012;28;20192;-75
2023/11/23 05:34:29;;;;;;;3.40;1.75;;;13.30;71.30;14.80;102013.00;;;;5038665;28;20215;-75
2023/11/23 05:36:56;;;;;;;3.65;1.85;;;13.30;71.30;14.80;102011.00;;;;5033553;28;20596;-75
2023/11/23 05:39:23;;;;;;;5.47;1.70;;;13.30;71.30;14.80;102021.00;;;;5030052;28;20191;-75
2023/11/23 05:41:50;;;;;;;3.63;1.98;;;13.30;71.30;14.80;102010.00;;;;5031023;28;20696;-75
2023/11/23 05:44:17;;;;;;;3.88;2.05;;;13.30;71.30;14.80;102008.00;;;;5030043;28;20208;-75
2023/11/23 05:46:47;;;;;;;3.40;1.90;;;13.30;71.20;14.80;102014.00;;;;5030069;28;20196;-75
2023/11/23 05:49:14;;;;;;;2.47;1.73;;;13.20;71.20;14.80;102011.00;;;;5029397;28;20189;-75
2023/11/23 05:51:42;;;;;;;5.40;2.25;;;13.30;71.30;14.80;102014.00;;;;5030052;28;20200;-75
2023/11/23 05:54:09;;;;;;;4.13;1.67;;;13.20;71.30;14.80;102011.00;;;;5030508;28;20204;-75
2023/11/23 05:56:36;;;;;;;4.70;2.53;;;13.20;71.40;14.80;102016.00;;;;5029446;28;20227;-75
2023/11/23 05:59:03;;;;;;;4.10;1.90;;;13.30;71.40;14.80;102012.00;;;;5030483;28;20224;-75
2023/11/23 06:01:30;;;;;;;7.78;2.58;;;13.20;71.40;14.80;102019.00;;;;5028140;28;20204;-75
2023/11/23 06:03:57;;;;;;;4.95;2.15;;;13.30;71.40;14.80;102012.00;;;;5031020;28;20258;-75
2023/11/23 06:06:25;;;;;;;5.38;2.30;;;13.20;71.40;14.80;102009.00;;;;5032099;28;20211;-75
2023/11/23 06:08:53;;;;;;;2.22;1.73;;;13.20;71.40;14.80;102007.00;;;;5029639;28;20211;-75
2023/11/23 06:11:20;;;;;;;4.40;1.83;;;13.20;71.40;14.80;102011.00;;;;5028927;28;20200;-75
2023/11/23 06:13:48;;;;;;;4.22;2.17;;;13.20;71.40;14.80;102003.00;;;;5032417;28;20659;-75
2023/11/23 06:16:16;;;;;;;3.58;2.15;;;13.20;71.50;14.80;101999.00;;;;5022523;28;20189;-75
2023/11/23 06:18:43;;;;;;;2.92;1.80;;;13.20;71.50;14.80;102003.00;;;;5020863;28;20228;-75
2023/11/23 06:21:10;;;;;;;4.10;2.80;;;13.20;71.50;14.80;102011.00;;;;5036698;28;20211;-75
2023/11/23 06:23:37;;;;;;;4.45;1.80;;;13.20;71.50;14.80;102007.00;;;;5029672;28;20677;-75
2023/11/23 06:26:05;;;;;;;6.60;2.15;;;13.20;71.50;14.80;102008.00;;;;5026852;28;20921;-75
2023/11/23 06:28:32;;;;;;;6.22;2.13;;;13.20;71.50;14.80;102009.00;;;;5026594;28;20201;-75
2023/11/23 06:30:59;;;;;;;4.30;2.35;;;13.20;71.50;14.80;101996.00;;;;5029681;28;20199;-76
2023/11/23 06:33:27;;;;;;;2.53;1.75;;;13.20;71.50;14.80;101991.00;;;;5034716;28;20207;-75
2023/11/23 06:35:54;;;;;;;3.00;2.33;;;13.20;71.50;14.80;101991.00;;;;5027427;28;20700;-76
2023/11/23 06:38:23;;;;;;;4.88;2.47;;;13.20;71.50;14.80;101981.00;;;;5028458;28;20298;-75
2023/11/23 06:40:50;;;;;;;7.07;2.60;;;13.20;71.50;14.80;101986.00;;;;5027377;28;20208;-75
2023/11/23 06:43:19;;;;;;;5.30;2.67;;;13.20;71.40;14.70;101984.00;;;;5030538;28;20196;-75
2023/11/23 06:45:46;;;;;;;4.25;2.25;;;13.20;71.50;14.70;101978.00;;;;5024851;28;20197;-75
2023/11/23 06:48:13;;;;;;;7.55;2.28;;;13.20;71.50;14.70;101974.00;;;;5027415;28;20226;-75
2023/11/23 06:50:40;;;;;;;9.43;3.00;;;13.20;71.60;14.70;101983.00;;;;5028189;28;20995;-75
2023/11/23 06:53:07;;;;;;;4.55;2.15;;;13.20;71.60;14.70;101982.00;;;;5028208;28;21039;-75
2023/11/23 06:55:34;;;;;;;6.15;3.22;;;13.20;71.60;14.70;101973.00;;;;5027746;28;20250;-75
2023/11/23 06:58:01;;;;;;;3.30;2.30;;;13.20;71.70;14.70;101970.00;;;;5028105;28;20224;-75
2023/11/23 07:00:29;;;;;;;6.05;3.10;;;13.20;71.70;14.70;101968.00;;;;5028956;28;20219;-75
2023/11/23 07:02:59;;;;;;;6.57;3.10;;;13.20;71.80;14.70;101965.00;;;;5026878;28;20208;-75
2023/11/23 07:05:27;;;;;;;6.47;2.58;;;13.20;71.70;14.70;101967.00;;;;5024973;28;20204;-76
2023/11/23 07:07:55;;;;;;;4.22;3.05;;;13.20;71.70;14.70;101959.00;;;;5026660;28;20813;-75
2023/11/23 07:10:22;;;;;;;7.43;3.00;;;13.20;71.80;14.70;101962.00;;;;5028485;28;20203;-75
2023/11/23 07:12:49;;;;;;;3.30;2.55;;;13.20;71.80;14.70;101960.00;;;;5023778;28;20200;-76
2023/11/23 07:15:17;;;;;;;5.70;3.50;;;13.10;71.80;14.70;101964.00;;;;5036462;28;20200;-76
2023/11/23 07:17:46;;;;;;;7.68;3.35;;;13.20;72.00;14.70;101971.00;;;;5027614;28;20226;-75
2023/11/23 07:20:14;;;;;;;5.38;2.72;;;13.20;72.00;14.70;101974.00;;;;5026041;28;20287;-75
2023/11/23 07:22:41;;;;;;;4.88;2.78;;;13.20;72.00;14.70;101975.00;;;;5028637;28;20670;-75
2023/11/23 07:25:09;;;;;;;6.53;2.90;;;13.20;72.00;14.70;101981.00;;;;5034081;28;20713;-75
2023/11/23 07:27:37;;;;;;;5.50;2.42;;;13.20;72.10;14.70;101969.00;;;;5024779;28;20204;-75
2023/11/23 07:30:07;;;;;;;3.13;2.30;;;13.20;72.10;14.70;101972.00;;;;5028896;28;20192;-75
2023/11/23 07:32:34;;;;;;;8.20;2.70;;;13.20;72.10;14.80;101961.00;;;;5028623;28;20238;-75
2023/11/23 07:35:04;;;;;;;5.97;2.83;;;13.20;72.20;14.80;101969.00;;;;5028707;28;20215;-75
2023/11/23 07:37:33;;;;;;;7.78;2.33;;;13.20;72.10;14.80;101973.00;;;;5027224;28;20223;-75
2023/11/23 07:40:04;;;;;;;7.80;2.47;;;13.30;72.10;14.80;101990.00;;;;5025042;28;20248;-76
2023/11/23 07:42:31;;;;;;;4.20;2.30;;;13.20;72.10;14.80;101988.00;;;;5022378;28;20287;-75
2023/11/23 07:44:58;;;;;;;5.00;2.47;;;13.30;72.10;14.80;101986.00;;;;5027165;28;20243;-75
2023/11/23 07:47:25;;;;;;;4.40;2.53;;;13.30;72.20;14.90;101978.00;;;;5028877;28;20236;-75
2023/11/23 07:49:54;;;;;;;2.63;2.00;;;13.30;72.30;14.90;101981.00;;;;5027633;28;20204;-75
2023/11/23 07:52:22;;;;;;;5.18;2.28;;;13.40;72.40;15.00;101974.00;;;;5028394;28;20203;-75
2023/11/23 07:54:49;;;;;;;3.90;2.50;;;13.30;72.40;15.00;101972.00;;;;5026553;28;20192;-75
2023/11/23 07:57:17;;;;;;;5.20;2.53;;;13.40;72.50;15.00;101972.00;;;;5027758;28;20235;-75
2023/11/23 07:59:44;;;;;;;5.03;2.33;;;13.50;72.60;15.10;101962.00;;;;5034951;28;20223;-75
2023/11/23 08:02:11;;;;;;;4.28;2.50;;;13.50;72.60;15.10;101963.00;;;;5029006;28;20955;-75
2023/11/23 08:04:38;;;;;;;4.93;2.33;;;13.50;72.60;15.10;101965.00;;;;5023221;28;20279;-75
2023/11/23 08:07:05;;;;;;;6.57;2.63;;;13.50;72.60;15.20;101963.00;;;;5023992;28;20192;-76
2023/11/23 08:09:34;;;;;;;4.45;2.20;;;13.60;72.60;15.20;101973.00;;;;5030828;28;20195;-75
2023/11/23 08:12:01;;;;;;;5.35;2.00;;;13.60;72.60;15.30;101976.00;;;;5027883;28;20206;-76
2023/11/23 08:14:29;;;;;;;3.45;2.28;;;13.70;72.70;15.30;101976.00;;;;5028278;28;20258;-75
2023/11/23 08:16:56;;;;;;;3.33;2.00;;;13.70;72.70;15.40;101973.00;;;;5027580;28;20196;-76
2023/11/23 08:19:25;;;;;;;8.57;2.30;;;13.80;72.70;15.40;101976.00;;;;5029955;28;20710;-75
2023/11/23 08:21:52;;;;;;;4.60;2.00;;;13.80;72.70;15.50;101962.00;;;;5024012;28;20666;-75
2023/11/23 08:24:19;;;;;;;5.93;1.80;;;13.80;72.70;15.50;101969.00;;;;5028606;28;20242;-75
2023/11/23 08:26:48;;;;;;;8.93;2.45;;;13.90;72.70;15.60;101959.00;;;;5033652;28;20204;-76
2023/11/23 08:29:16;;;;;;;6.45;2.13;;;13.90;72.70;15.60;101967.00;;;;5028286;28;20196;-76
2023/11/23 08:31:43;;;;;;;6.22;2.22;;;14.00;72.70;15.60;101956.00;;;;5026622;28;20658;-76
2023/11/23 08:34:11;;;;;;;4.18;2.00;;;14.00;72.60;15.70;101957.00;;;;5024516;28;20203;-76
2023/11/23 08:36:41;;;;;;;3.85;1.88;;;14.10;72.60;15.70;101950.00;;;;5039370;28;20203;-76
2023/11/23 08:39:11;;;;;;;5.22;1.77;;;14.10;72.50;15.80;101939.00;;;;5027742;28;20282;-76
2023/11/23 08:41:38;;;;;;;6.38;1.77;;;14.10;72.50;15.80;101936.00;;;;5032491;28;20219;-76
2023/11/23 08:44:07;;;;;;;5.93;1.75;;;14.20;72.50;15.80;101937.00;;;;5030853;28;20215;-76
2023/11/23 08:46:35;;;;;;;7.38;1.83;;;14.20;72.50;15.80;101942.00;;;;5031774;28;20208;-76
2023/11/23 08:49:02;;;;;;;5.50;1.52;;;14.30;72.50;15.90;101950.00;;;;5025322;28;20204;-76
2023/11/23 08:51:29;;;;;;;4.10;2.00;;;14.30;72.50;15.90;101955.00;;;;5025635;28;20673;-76
2023/11/23 08:53:57;;;;;;;6.60;1.77;;;14.30;72.50;16.00;101939.00;;;;5027520;28;20204;-76
2023/11/23 08:56:25;;;;;;;3.38;1.88;;;14.40;72.50;16.00;101928.00;;;;5031148;28;20229;-76
2023/11/23 08:58:52;;;;;;;5.10;2.55;;;14.40;72.50;16.00;101923.00;;;;5026811;28;20592;-76
2023/11/23 09:01:20;;;;;;;3.17;1.77;;;14.40;72.50;16.10;101920.00;;;;5025765;28;20199;-76
2023/11/23 09:03:47;;;;;;;5.22;1.55;;;14.50;72.50;16.10;101912.00;;;;5028106;28;20196;-76
2023/11/23 09:06:14;;;;;;;13.05;1.95;;;14.50;72.40;16.20;101921.00;;;;5030498;28;20510;-76
2023/11/23 09:08:41;;;;;;;3.05;1.60;;;14.60;72.50;16.20;101906.00;;;;5028226;28;20196;-76
2023/11/23 09:11:09;;;;;;;2.97;1.35;;;14.60;72.50;16.20;101925.00;;;;5026806;28;20197;-76
2023/11/23 09:13:36;;;;;;;6.30;1.60;;;14.70;72.50;16.30;101938.00;;;;5025277;28;20203;-76
2023/11/23 09:16:03;;;;;;;3.03;1.55;;;14.70;72.50;16.30;101934.00;;;;5027234;28;20200;-76
2023/11/23 09:18:31;;;;;;;6.82;1.80;;;14.70;72.30;16.30;101930.00;;;;5027151;28;20220;-76
2023/11/23 09:20:59;;;;;;;2.08;1.33;;;14.80;72.40;16.40;101918.00;;;;5025646;28;20736;-76
2023/11/23 09:23:27;;;;;;;4.20;1.88;;;14.80;72.20;16.40;101929.00;;;;5028495;28;20200;-77
2023/11/23 09:25:54;;;;;;;5.18;2.35;;;14.80;72.20;16.50;101920.00;;;;5032285;28;20204;-76
2023/11/23 09:28:22;;;;;;;6.28;1.92;;;14.80;72.30;16.50;101917.00;;;;5029550;28;20197;-76
2023/11/23 09:30:49;;;;;;;4.47;2.40;;;14.90;72.30;16.50;101906.00;;;;5028307;28;20214;-76
2023/11/23 09:33:17;;;;;;;9.77;2.80;;;14.90;72.20;16.60;101904.00;;;;5028951;28;20189;-76
2023/11/23 09:35:45;;;;;;;12.05;2.78;;;15.00;72.30;16.70;101906.00;;;;5028953;28;20564;-76
2023/11/23 09:38:12;;;;;;;4.93;2.33;;;15.00;72.30;16.70;101900.00;;;;5028780;28;20227;-76
2023/11/23 09:40:39;;;;;;;5.15;2.22;;;15.10;72.30;16.70;101892.00;;;;5026183;28;20200;-76
2023/11/23 09:43:06;;;;;;;7.72;2.53;;;15.10;72.20;16.70;101886.00;;;;5021684;28;20677;-76
2023/11/23 09:45:33;;;;;;;6.65;2.45;;;15.10;71.90;16.70;101889.00;;;;5034034;28;20197;-76
2023/11/23 09:48:02;;;;;;;6.60;2.42;;;15.20;71.80;16.80;101895.00;;;;5027749;28;20196;-76
2023/11/23 09:50:30;;;;;;;4.28;2.10;;;15.20;71.70;16.80;101893.00;;;;5028778;28;20192;-77
2023/11/23 09:53:00;;;;;;;4.70;2.35;;;15.20;71.70;16.70;101870.00;;;;5029080;28;20204;-76
2023/11/23 09:55:29;;;;;;;6.20;2.10;;;15.20;71.70;16.80;101870.00;;;;5025480;28;20200;-75
2023/11/23 09:57:56;;;;;;;4.65;2.05;;;15.20;71.70;16.80;101860.00;;;;5027352;28;20189;-75
2023/11/23 10:00:24;;;;;;;5.55;2.42;;;15.30;71.70;16.80;101858.00;;;;5026477;28;20223;-76
2023/11/23 10:02:55;;;;;;;5.32;1.75;;;15.30;71.70;16.80;101851.00;;;;5026072;28;20200;-75
2023/11/23 10:05:23;;;;;;;4.00;2.00;;;15.30;71.80;16.90;101847.00;;;;5024275;28;20749;-75
2023/11/23 10:07:53;;;;;;;8.07;1.92;;;15.40;72.00;17.00;101848.00;;;;5025044;28;20199;-75
2023/11/23 10:10:22;;;;;;;5.95;1.58;;;15.40;72.10;17.00;101869.00;;;;5030878;28;20261;-76
2023/11/23 10:12:50;;;;;;;4.28;2.00;;;15.50;72.20;17.10;101855.00;;;;5037066;28;20207;-75
2023/11/23 10:15:17;;;;;;;4.43;1.60;;;15.50;72.30;17.20;101865.00;;;;5026338;28;20201;-75
2023/11/23 10:17:44;;;;;;;6.88;2.35;;;15.60;72.40;17.20;101870.00;;;;5025825;28;21096;-75
2023/11/23 10:20:14;;;;;;;2.60;1.35;;;15.60;72.30;17.30;101877.00;;;;5028868;28;20605;-76
2023/11/23 10:22:44;;;;;;;5.28;1.60;;;15.70;72.40;17.40;101856.00;;;;5027244;28;20200;-75
2023/11/23 10:25:24;;;;;;;4.90;1.88;;;15.80;72.30;17.40;101851.00;;;;5029187;28;20204;-75
2023/11/23 10:27:52;;;;;;;5.47;1.75;;;15.90;72.20;17.50;101850.00;;;;5027276;28;20549;-76
2023/11/23 10:30:19;;;;;;;7.13;1.65;;;16.00;72.00;17.60;101856.00;;;;5027027;28;20231;-75
2023/11/23 10:32:48;;;;;;;5.25;1.48;;;16.00;71.80;17.60;101865.00;;;;5024831;28;20200;-75
2023/11/23 10:35:18;;;;;;;3.47;1.25;;;16.10;71.80;17.70;101859.00;;;;5024882;28;20243;-75
2023/11/23 10:37:49;;;;;;;5.13;1.55;;;16.20;71.70;17.80;101853.00;;;;5029199;28;20262;-75
2023/11/23 10:40:18;;;;;;;3.60;1.48;;;16.20;71.70;17.80;101854.00;;;;5025877;28;20232;-75
2023/11/23 10:42:47;;;;;;;2.47;1.00;;;16.30;71.70;17.80;101842.00;;;;5027576;28;20208;-76
2023/11/23 10:45:16;;;;;;;6.28;1.10;;;16.30;71.50;17.90;101844.00;;;;5027051;28;20206;-76
2023/11/23 10:47:47;;;;;;;2.63;1.40;;;16.40;71.40;18.00;101838.00;;;;5028518;28;20200;-75